createdAt,value
2022-12-11T00:00:53.527Z,87.30
2022-12-11T00:03:20.810Z,87.15
2022-12-11T00:05:47.919Z,87.51
2022-12-11T00:08:15.110Z,87.42
2022-12-11T00:10:49.771Z,87.29
2022-12-11T00:13:16.856Z,87.29
2022-12-11T00:15:43.933Z,86.96
2022-12-11T00:18:14.670Z,86.80
2022-12-11T00:20:41.878Z,87.00
2022-12-11T00:23:08.961Z,86.85
2022-12-11T00:25:35.994Z,86.91
2022-12-11T00:28:03.004Z,87.24
2022-12-11T00:30:29.969Z,86.85
2022-12-11T00:32:56.945Z,86.76
2022-12-11T00:35:23.980Z,87.58
2022-12-11T00:37:51.017Z,87.73
2022-12-11T00:40:18.055Z,87.72
2022-12-11T00:42:45.056Z,87.81
2022-12-11T00:45:12.261Z,87.96
2022-12-11T00:47:39.802Z,88.67
2022-12-11T00:50:07.761Z,89.08
2022-12-11T00:52:35.577Z,89.10
2022-12-11T00:55:02.605Z,88.60
2022-12-11T00:57:29.559Z,88.62
2022-12-11T00:59:56.554Z,89.25
2022-12-11T01:02:23.719Z,88.76
2022-12-11T01:04:50.777Z,89.30
2022-12-11T01:07:17.893Z,88.96
2022-12-11T01:10:03.471Z,89.29
2022-12-11T01:12:30.467Z,89.04
2022-12-11T01:14:57.460Z,89.00
2022-12-11T01:17:24.465Z,89.44
2022-12-11T01:19:54.930Z,89.89
2022-12-11T01:22:21.983Z,89.41
2022-12-11T01:24:49.323Z,89.83
2022-12-11T01:27:16.452Z,89.36
2022-12-11T01:29:43.526Z,89.06
2022-12-11T01:32:10.479Z,89.47
2022-12-11T01:34:37.536Z,89.64
2022-12-11T01:37:04.858Z,89.72
2022-12-11T01:39:31.829Z,89.64
2022-12-11T01:42:01.304Z,89.72
2022-12-11T01:44:31.105Z,89.63
2022-12-11T01:46:58.518Z,89.68
2022-12-11T01:49:28.450Z,89.69
2022-12-11T01:52:32.284Z,89.62
2022-12-11T01:54:59.469Z,89.25
2022-12-11T01:57:26.466Z,89.19
2022-12-11T01:59:53.598Z,89.55
2022-12-11T02:02:32.273Z,89.31
2022-12-11T02:05:01.579Z,89.29
2022-12-11T02:07:37.228Z,90.06
2022-12-11T02:10:05.312Z,90.08
2022-12-11T02:13:02.334Z,89.42
2022-12-11T02:16:31.101Z,89.40
2022-12-11T02:19:33.340Z,88.99
2022-12-11T02:22:05.210Z,89.09
2022-12-11T02:25:22.070Z,88.36
2022-12-11T02:28:41.284Z,88.56
2022-12-11T02:31:40.821Z,88.93
2022-12-11T02:34:19.967Z,89.08
2022-12-11T02:36:57.790Z,89.43
2022-12-11T02:39:27.352Z,89.08
2022-12-11T02:41:55.340Z,89.32
2022-12-11T02:44:29.530Z,89.56
2022-12-11T02:46:57.456Z,90.05
2022-12-11T02:49:26.750Z,90.31
2022-12-11T02:51:55.018Z,89.65
2022-12-11T02:54:30.546Z,90.32
2022-12-11T02:57:08.559Z,89.55
2022-12-11T02:59:46.753Z,89.43
2022-12-11T03:02:15.501Z,89.76
2022-12-11T03:04:44.371Z,90.19
2022-12-11T03:07:25.335Z,89.77
2022-12-11T03:09:53.385Z,89.99
2022-12-11T03:12:32.661Z,90.42
2022-12-11T03:15:03.886Z,90.38
2022-12-11T03:17:54.327Z,90.33
2022-12-11T03:21:02.124Z,89.98
2022-12-11T03:23:48.318Z,89.51
2022-12-11T03:26:17.208Z,89.87
2022-12-11T03:29:11.835Z,89.98
2022-12-11T03:31:49.597Z,89.75
2022-12-11T03:35:05.764Z,90.05
2022-12-11T03:37:38.981Z,89.76
2022-12-11T03:40:16.104Z,89.87
2022-12-11T03:42:47.169Z,89.50
2022-12-11T03:45:16.033Z,89.37
2022-12-11T03:47:45.111Z,89.28
2022-12-11T03:50:16.381Z,88.84
2022-12-11T03:52:46.596Z,89.26
2022-12-11T03:55:17.293Z,89.72
2022-12-11T03:57:44.739Z,89.78
2022-12-11T04:00:18.412Z,90.01
2022-12-11T04:03:12.717Z,90.03
2022-12-11T04:05:44.988Z,90.39
2022-12-11T04:08:12.494Z,90.22
2022-12-11T04:10:41.005Z,90.51
2022-12-11T04:13:10.116Z,90.50
2022-12-11T04:15:38.733Z,90.25
2022-12-11T04:18:26.473Z,90.63
2022-12-11T04:21:14.402Z,90.82
2022-12-11T04:23:59.899Z,90.55
2022-12-11T04:26:27.048Z,90.37
2022-12-11T04:28:54.330Z,90.01
2022-12-11T04:31:22.534Z,90.11
2022-12-11T04:33:49.931Z,89.94
2022-12-11T04:36:17.774Z,90.64
2022-12-11T04:38:44.792Z,90.39
2022-12-11T04:41:15.545Z,90.12
2022-12-11T04:43:47.095Z,89.90
2022-12-11T04:46:16.394Z,90.46
2022-12-11T04:48:44.553Z,90.23
2022-12-11T04:51:12.661Z,90.84
2022-12-11T04:53:39.933Z,90.73
2022-12-11T04:56:10.468Z,91.08
2022-12-11T04:58:38.957Z,90.57
2022-12-11T05:01:19.704Z,90.61
2022-12-11T05:03:47.466Z,90.63
2022-12-11T05:06:15.316Z,90.50
2022-12-11T05:08:45.128Z,90.22
2022-12-11T05:11:15.260Z,90.97
2022-12-11T05:13:43.085Z,90.62
2022-12-11T05:16:14.190Z,90.65
2022-12-11T05:18:41.709Z,90.32
2022-12-11T05:21:13.212Z,90.65
2022-12-11T05:23:41.369Z,90.70
2022-12-11T05:26:17.021Z,90.39
2022-12-11T05:28:45.401Z,90.82
2022-12-11T05:31:17.560Z,90.49
2022-12-11T05:33:46.514Z,89.91
2022-12-11T05:36:25.418Z,89.17
2022-12-11T05:38:53.733Z,88.05
2022-12-11T05:41:24.452Z,87.02
2022-12-11T05:43:52.071Z,86.80
2022-12-11T05:46:26.550Z,86.55
2022-12-11T05:49:00.933Z,86.24
2022-12-11T05:51:29.871Z,86.10
2022-12-11T05:53:58.145Z,86.17
2022-12-11T05:56:30.526Z,86.02
2022-12-11T05:58:59.696Z,85.38
2022-12-11T06:01:41.444Z,85.24
2022-12-11T06:04:10.875Z,84.58
2022-12-11T06:06:38.505Z,85.44
2022-12-11T06:09:06.643Z,85.52
2022-12-11T06:11:35.852Z,85.50
2022-12-11T06:14:04.104Z,85.91
2022-12-11T06:16:32.124Z,85.34
2022-12-11T06:18:59.364Z,84.73
2022-12-11T06:21:32.182Z,85.10
2022-12-11T06:24:03.810Z,85.19
2022-12-11T06:26:31.934Z,84.65
2022-12-11T06:28:59.054Z,85.30
2022-12-11T06:31:26.375Z,84.68
2022-12-11T06:33:54.204Z,85.00
2022-12-11T06:36:24.226Z,84.89
2022-12-11T06:38:52.778Z,85.74
2022-12-11T06:41:19.849Z,85.10
2022-12-11T06:43:47.040Z,85.32
2022-12-11T06:46:20.113Z,85.32
2022-12-11T06:48:48.788Z,86.27
2022-12-11T06:51:22.831Z,85.65
2022-12-11T06:53:56.099Z,84.27
2022-12-11T06:56:25.028Z,84.39
2022-12-11T06:58:52.666Z,84.11
2022-12-11T07:01:26.293Z,84.65
2022-12-11T07:03:59.807Z,84.26
2022-12-11T07:06:28.560Z,83.64
2022-12-11T07:08:56.155Z,83.57
2022-12-11T07:11:23.687Z,84.47
2022-12-11T07:13:50.968Z,85.37
2022-12-11T07:16:18.909Z,84.76
2022-12-11T07:18:51.406Z,84.59
2022-12-11T07:21:20.389Z,84.67
2022-12-11T07:23:48.826Z,85.20
2022-12-11T07:26:20.067Z,85.16
2022-12-11T07:28:47.492Z,84.48
2022-12-11T07:31:26.378Z,84.15
2022-12-11T07:34:04.768Z,83.76
2022-12-11T07:36:33.810Z,84.65
2022-12-11T07:39:01.917Z,84.02
2022-12-11T07:41:29.089Z,83.13
2022-12-11T07:43:56.501Z,83.75
2022-12-11T07:46:27.661Z,84.04
2022-12-11T07:48:55.103Z,84.28
2022-12-11T07:51:35.416Z,83.88
2022-12-11T07:54:12.861Z,84.19
2022-12-11T07:56:43.671Z,83.62
2022-12-11T07:59:11.088Z,83.72
2022-12-11T08:01:39.917Z,83.61
2022-12-11T08:04:11.465Z,83.49
2022-12-11T08:06:40.303Z,83.17
2022-12-11T08:09:20.609Z,82.77
2022-12-11T08:11:50.665Z,83.89
2022-12-11T08:14:19.429Z,84.37
2022-12-11T08:16:47.026Z,82.67
2022-12-11T08:19:14.662Z,82.86
2022-12-11T08:21:41.983Z,82.89
2022-12-11T08:24:10.086Z,82.39
2022-12-11T08:26:37.383Z,82.43
2022-12-11T08:29:04.569Z,83.71
2022-12-11T08:31:31.698Z,81.96
2022-12-11T08:33:58.973Z,83.62
2022-12-11T08:36:26.604Z,84.09
2022-12-11T08:39:05.194Z,83.76
2022-12-11T08:41:32.543Z,83.37
2022-12-11T08:44:01.574Z,82.84
2022-12-11T08:46:32.558Z,82.70
2022-12-11T08:49:00.028Z,83.69
2022-12-11T08:51:29.736Z,82.41
2022-12-11T08:54:01.429Z,82.87
2022-12-11T08:56:29.773Z,82.73
2022-12-11T08:59:01.029Z,83.84
2022-12-11T09:01:29.308Z,84.14
2022-12-11T09:03:57.383Z,84.25
2022-12-11T09:06:28.772Z,82.94
2022-12-11T09:08:59.536Z,83.02
2022-12-11T09:11:35.126Z,83.52
2022-12-11T09:14:07.176Z,83.21
2022-12-11T09:16:40.232Z,82.73
2022-12-11T09:19:12.755Z,83.75
2022-12-11T09:21:41.071Z,83.91
2022-12-11T09:24:11.871Z,83.42
2022-12-11T09:26:39.829Z,83.18
2022-12-11T09:29:07.329Z,83.56
2022-12-11T09:31:36.943Z,83.25
2022-12-11T09:34:11.722Z,83.07
2022-12-11T09:36:41.151Z,82.98
2022-12-11T09:39:10.773Z,84.41
2022-12-11T09:42:11.530Z,82.95
2022-12-11T09:44:52.976Z,82.92
2022-12-11T09:47:46.845Z,83.30
2022-12-11T09:50:32.892Z,83.18
2022-12-11T09:53:36.158Z,83.37
2022-12-11T09:56:32.356Z,82.87
2022-12-11T09:59:25.638Z,83.74
2022-12-11T10:02:25.272Z,82.84
2022-12-11T10:05:33.215Z,84.20
2022-12-11T10:08:47.827Z,84.71
2022-12-11T10:12:03.575Z,85.33
2022-12-11T10:14:52.029Z,85.56
2022-12-11T10:17:37.640Z,84.84
2022-12-11T10:20:39.110Z,84.82
2022-12-11T10:23:19.601Z,84.54
2022-12-11T10:26:03.951Z,83.86
2022-12-11T10:28:31.032Z,83.68
2022-12-11T10:31:06.807Z,84.45
2022-12-11T10:34:11.719Z,83.64
2022-12-11T10:36:43.247Z,83.96
2022-12-11T10:39:19.876Z,84.39
2022-12-11T10:41:54.563Z,83.91
2022-12-11T10:44:31.536Z,83.60
2022-12-11T10:47:11.902Z,83.68
2022-12-11T10:49:53.609Z,82.91
2022-12-11T10:52:39.012Z,83.57
2022-12-11T10:55:30.892Z,83.88
2022-12-11T10:58:05.759Z,82.21
2022-12-11T11:00:40.913Z,83.75
2022-12-11T11:03:27.725Z,82.94
2022-12-11T11:06:20.584Z,83.20
2022-12-11T11:08:53.479Z,82.64
2022-12-11T11:11:36.605Z,83.37
2022-12-11T11:14:20.524Z,82.49
2022-12-11T11:16:58.088Z,82.35
2022-12-11T11:19:36.447Z,83.20
2022-12-11T11:22:14.089Z,82.35
2022-12-11T11:24:53.734Z,82.11
2022-12-11T11:27:43.505Z,83.70
2022-12-11T11:30:28.523Z,82.69
2022-12-11T11:33:17.731Z,81.60
2022-12-11T11:36:20.322Z,82.14
2022-12-11T11:39:22.802Z,82.45
2022-12-11T11:42:21.866Z,82.01
2022-12-11T11:45:16.230Z,82.96
2022-12-11T11:48:20.483Z,83.32
2022-12-11T11:50:50.559Z,83.12
2022-12-11T11:53:29.489Z,82.61
2022-12-11T11:56:28.337Z,82.29
2022-12-11T11:59:26.018Z,82.25
2022-12-11T12:01:57.332Z,82.14
2022-12-11T12:04:31.358Z,82.35
2022-12-11T12:07:51.358Z,82.46
2022-12-11T12:10:52.022Z,82.49
2022-12-11T12:13:51.793Z,83.17
2022-12-11T12:20:17.013Z,84.05
2022-12-11T12:23:15.015Z,83.70
2022-12-11T12:25:58.944Z,83.68
2022-12-11T12:28:48.948Z,83.60
2022-12-11T12:31:53.865Z,82.59
2022-12-11T12:34:46.025Z,83.15
2022-12-11T12:37:46.853Z,83.22
2022-12-11T12:41:07.579Z,82.95
2022-12-11T12:44:19.251Z,82.80
2022-12-11T12:47:14.192Z,82.98
2022-12-11T12:49:51.705Z,84.16
2022-12-11T12:52:37.570Z,83.75
2022-12-11T12:55:14.025Z,83.88
2022-12-11T12:58:08.522Z,83.84
2022-12-11T13:00:43.956Z,83.42
2022-12-11T13:03:29.856Z,82.46
2022-12-11T13:06:08.939Z,82.27
2022-12-11T13:08:52.507Z,82.83
2022-12-11T13:11:30.522Z,82.60
2022-12-11T13:14:30.158Z,83.17
2022-12-11T13:17:22.125Z,83.61
2022-12-11T13:20:22.019Z,83.53
2022-12-11T13:23:00.096Z,84.08
2022-12-11T13:25:36.205Z,83.97
2022-12-11T13:28:51.805Z,84.24
2022-12-11T13:31:18.743Z,83.14
2022-12-11T13:33:56.365Z,83.21
2022-12-11T13:36:37.654Z,83.76
2022-12-11T13:39:27.577Z,83.96
2022-12-11T13:42:21.748Z,83.43
2022-12-11T13:44:49.424Z,83.51
2022-12-11T13:47:19.911Z,83.73
2022-12-11T13:49:54.536Z,84.33
2022-12-11T13:52:28.729Z,83.77
2022-12-11T13:54:59.266Z,83.09
2022-12-11T13:57:28.651Z,83.95
2022-12-11T13:59:58.168Z,84.03
2022-12-11T14:02:40.025Z,84.40
2022-12-11T14:05:12.102Z,84.43
2022-12-11T14:07:52.955Z,84.28
2022-12-11T14:10:32.462Z,84.35
2022-12-11T14:13:27.266Z,84.03
2022-12-11T14:15:54.871Z,84.38
2022-12-11T14:18:27.315Z,84.79
2022-12-11T14:21:04.305Z,85.39
2022-12-11T14:23:37.138Z,85.19
2022-12-11T14:26:27.233Z,85.07
2022-12-11T14:28:54.675Z,85.23
2022-12-11T14:31:48.097Z,85.79
2022-12-11T14:34:25.056Z,86.31
2022-12-11T14:36:52.422Z,86.51
2022-12-11T14:39:40.603Z,86.57
2022-12-11T14:42:40.477Z,86.97
2022-12-11T14:45:32.072Z,86.78
2022-12-11T14:48:01.817Z,87.05
2022-12-11T14:50:59.998Z,87.12
2022-12-11T14:53:37.915Z,87.71
2022-12-11T14:56:15.886Z,87.68
2022-12-11T14:59:09.136Z,87.50
2022-12-11T15:01:38.534Z,87.77
2022-12-11T15:04:14.588Z,87.68
2022-12-11T15:06:51.199Z,87.71
2022-12-11T15:09:38.125Z,88.02
2022-12-11T15:12:14.492Z,87.61
2022-12-11T15:15:05.037Z,87.32
2022-12-11T15:17:34.493Z,87.83
2022-12-11T15:20:29.898Z,87.65
2022-12-11T15:23:01.661Z,87.07
2022-12-11T15:25:30.460Z,87.06
2022-12-11T15:28:04.852Z,86.86
2022-12-11T15:30:37.973Z,86.55
2022-12-11T15:33:10.916Z,86.37
2022-12-11T15:35:40.543Z,86.93
2022-12-11T15:38:38.718Z,87.13
2022-12-11T15:41:13.525Z,87.34
2022-12-11T15:43:40.842Z,88.05
2022-12-11T15:46:07.885Z,88.11
2022-12-11T15:48:35.061Z,87.84
2022-12-11T15:51:03.769Z,88.41
2022-12-11T15:53:31.042Z,88.48
2022-12-11T15:55:59.738Z,88.47
2022-12-11T15:58:27.454Z,87.79
2022-12-11T16:00:54.990Z,88.10
2022-12-11T16:03:24.280Z,88.09
2022-12-11T16:05:53.005Z,88.01
2022-12-11T16:08:23.605Z,88.49
2022-12-11T16:10:54.684Z,88.80
2022-12-11T16:13:22.599Z,88.40
2022-12-11T16:15:51.849Z,88.15
2022-12-11T16:18:23.334Z,88.48
2022-12-11T16:20:52.184Z,89.19
2022-12-11T16:23:20.208Z,89.13
2022-12-11T16:25:47.804Z,88.67
2022-12-11T16:28:18.145Z,88.74
2022-12-11T16:30:45.897Z,88.98
2022-12-11T16:33:13.882Z,89.06
2022-12-11T16:35:42.827Z,89.49
2022-12-11T16:38:11.138Z,89.08
2022-12-11T16:40:41.847Z,89.41
2022-12-11T16:43:09.017Z,89.67
2022-12-11T16:45:36.375Z,89.73
2022-12-11T16:48:05.154Z,90.05
2022-12-11T16:50:32.525Z,89.69
2022-12-11T16:52:59.776Z,89.57
2022-12-11T16:55:27.084Z,89.22
2022-12-11T16:57:55.058Z,90.06
2022-12-11T17:00:22.495Z,90.02
2022-12-11T17:02:49.673Z,90.37
2022-12-11T17:05:16.809Z,90.61
2022-12-11T17:07:43.907Z,90.70
2022-12-11T17:10:11.405Z,90.28
2022-12-11T17:12:38.914Z,90.68
2022-12-11T17:15:07.200Z,90.61
2022-12-11T17:17:34.265Z,90.85
2022-12-11T17:20:01.681Z,91.24
2022-12-11T17:22:29.148Z,91.32
2022-12-11T17:24:56.253Z,91.05
2022-12-11T17:27:23.277Z,91.39
2022-12-11T17:29:50.746Z,91.08
2022-12-11T17:32:18.462Z,90.98
2022-12-11T17:34:48.550Z,91.00
2022-12-11T17:37:16.423Z,90.81
2022-12-11T17:39:43.761Z,90.64
2022-12-11T17:42:11.033Z,90.87
2022-12-11T17:44:38.808Z,90.66
2022-12-11T17:47:10.837Z,90.49
2022-12-11T17:49:40.427Z,89.86
2022-12-11T17:52:08.156Z,90.48
2022-12-11T17:54:35.283Z,90.97
2022-12-11T17:57:02.900Z,90.71
2022-12-11T17:59:29.903Z,91.02
2022-12-11T18:01:57.611Z,90.74
2022-12-11T18:04:25.179Z,90.59
2022-12-11T18:06:52.179Z,90.52
2022-12-11T18:09:22.313Z,90.21
2022-12-11T18:11:49.333Z,90.25
2022-12-11T18:14:17.674Z,90.61
2022-12-11T18:16:45.043Z,90.86
2022-12-11T18:19:12.431Z,90.38
2022-12-11T18:21:43.712Z,90.27
2022-12-11T18:24:11.408Z,90.40
2022-12-11T18:26:38.663Z,90.19
2022-12-11T18:29:06.640Z,90.44
2022-12-11T18:31:36.381Z,90.28
2022-12-11T18:34:06.973Z,90.39
2022-12-11T18:36:34.915Z,90.51
2022-12-11T18:39:03.316Z,90.17
2022-12-11T18:41:30.364Z,89.71
2022-12-11T18:44:05.284Z,89.52
2022-12-11T18:46:39.758Z,89.38
2022-12-11T18:49:07.163Z,89.54
2022-12-11T18:51:34.254Z,89.88
2022-12-11T18:54:01.459Z,89.86
2022-12-11T18:56:31.627Z,89.52
2022-12-11T18:58:58.826Z,89.64
2022-12-11T19:01:29.109Z,89.37
2022-12-11T19:04:04.264Z,89.56
2022-12-11T19:06:35.271Z,90.27
2022-12-11T19:09:07.644Z,90.66
2022-12-11T19:11:40.772Z,90.54
2022-12-11T19:14:10.635Z,90.45
2022-12-11T19:16:45.467Z,89.97
2022-12-11T19:19:18.846Z,90.06
2022-12-11T19:21:48.269Z,89.99
2022-12-11T19:24:23.358Z,90.08
2022-12-11T19:26:51.314Z,89.97
2022-12-11T19:29:27.717Z,89.74
2022-12-11T19:31:55.852Z,89.59
2022-12-11T19:34:23.552Z,89.73
2022-12-11T19:36:51.328Z,89.81
2022-12-11T19:39:19.667Z,89.75
2022-12-11T19:41:47.003Z,90.69
2022-12-11T19:44:14.136Z,90.06
2022-12-11T19:46:41.305Z,89.96
2022-12-11T19:49:08.472Z,90.09
2022-12-11T19:51:40.028Z,89.76
2022-12-11T19:54:15.326Z,89.53
2022-12-11T19:56:43.920Z,90.11
2022-12-11T19:59:16.783Z,90.31
2022-12-11T20:01:50.644Z,90.06
2022-12-11T20:04:18.386Z,90.63
2022-12-11T20:06:47.420Z,90.24
2022-12-11T20:09:15.942Z,89.66
2022-12-11T20:11:45.495Z,89.46
2022-12-11T20:14:26.655Z,89.18
2022-12-11T20:17:13.754Z,89.78
2022-12-11T20:19:42.124Z,88.75
2022-12-11T20:22:09.460Z,88.96
2022-12-11T20:24:37.031Z,88.82
2022-12-11T20:27:04.728Z,88.48
2022-12-11T20:29:31.944Z,89.62
2022-12-11T20:32:02.005Z,89.62
2022-12-11T20:34:29.092Z,89.27
2022-12-11T20:36:56.392Z,88.83
2022-12-11T20:39:24.757Z,89.34
2022-12-11T20:41:51.889Z,90.33
2022-12-11T20:44:20.018Z,89.55
2022-12-11T20:46:47.094Z,89.52
2022-12-11T20:49:14.143Z,89.29
2022-12-11T20:51:41.936Z,89.67
2022-12-11T20:54:09.081Z,89.34
2022-12-11T20:56:38.601Z,89.24
2022-12-11T20:59:05.930Z,88.78
2022-12-11T21:01:40.155Z,88.96
2022-12-11T21:04:07.370Z,88.78
2022-12-11T21:06:40.546Z,89.08
2022-12-11T21:09:18.974Z,89.27
2022-12-11T21:11:49.198Z,89.29
2022-12-11T21:14:18.648Z,89.74
2022-12-11T21:16:46.848Z,89.36
2022-12-11T21:19:17.136Z,89.19
2022-12-11T21:21:45.910Z,89.21
2022-12-11T21:24:26.397Z,90.09
2022-12-11T21:26:57.640Z,89.46
2022-12-11T21:29:29.151Z,89.28
2022-12-11T21:31:56.848Z,89.61
2022-12-11T21:34:25.757Z,89.80
2022-12-11T21:36:57.060Z,89.81
2022-12-11T21:39:26.675Z,89.89
2022-12-11T21:41:53.750Z,89.62
2022-12-11T21:47:08.847Z,89.42
2022-12-11T21:49:36.823Z,89.38
2022-12-11T21:52:04.595Z,89.65
2022-12-11T21:54:31.586Z,89.85
2022-12-11T21:57:00.281Z,89.73
2022-12-11T21:59:28.533Z,89.88
2022-12-11T22:01:56.480Z,90.55
2022-12-11T22:04:23.871Z,90.74
2022-12-11T22:06:50.970Z,90.67
2022-12-11T22:09:18.355Z,90.72
2022-12-11T22:11:58.674Z,90.64
2022-12-11T22:14:33.228Z,90.63
2022-12-11T22:17:00.838Z,91.21
2022-12-11T22:19:32.519Z,91.56
2022-12-11T22:22:00.152Z,91.86
2022-12-11T22:24:35.004Z,92.02
2022-12-11T22:27:06.053Z,91.63
2022-12-11T22:29:33.507Z,91.79
2022-12-11T22:32:04.517Z,91.78
2022-12-11T22:34:31.690Z,92.12
2022-12-11T22:36:59.439Z,92.33
2022-12-11T22:39:26.526Z,92.05
2022-12-11T22:41:59.591Z,91.70
2022-12-11T22:44:27.114Z,92.09
2022-12-11T22:46:54.538Z,91.97
2022-12-11T22:49:21.847Z,91.67
2022-12-11T22:51:49.444Z,91.64
2022-12-11T22:54:17.235Z,91.42
2022-12-11T22:56:50.493Z,91.02
2022-12-11T22:59:17.647Z,90.55
2022-12-11T23:01:44.783Z,90.66
2022-12-11T23:04:13.423Z,90.27
2022-12-11T23:06:40.874Z,90.27
2022-12-11T23:09:08.521Z,90.78
2022-12-11T23:11:39.936Z,90.77
2022-12-11T23:14:16.363Z,90.96
2022-12-11T23:16:44.326Z,91.44
2022-12-11T23:19:12.942Z,91.20
2022-12-11T23:21:40.646Z,90.83
2022-12-11T23:24:08.380Z,90.10
2022-12-11T23:26:36.046Z,89.77
2022-12-11T23:29:07.487Z,89.93
2022-12-11T23:31:34.758Z,89.67
2022-12-11T23:34:02.118Z,89.72
2022-12-11T23:36:30.412Z,90.05
2022-12-11T23:38:57.555Z,90.29
2022-12-11T23:41:25.285Z,91.62
2022-12-11T23:43:52.655Z,92.32
2022-12-11T23:46:24.327Z,92.18
2022-12-11T23:48:53.183Z,91.91
2022-12-11T23:51:22.945Z,91.67
2022-12-11T23:53:50.587Z,91.40
2022-12-11T23:56:28.549Z,91.01
2022-12-11T23:58:57.092Z,91.13
